Palouse, WA (99161)

9:53 PM PDT on August 27, 2014 (GMT -0700)
Palouse Cove | Change Station
CLOSE
Current Station
Personal Weather Station
Location: Palouse, WA
Elevation: 2462 ft
Nearby Weather Stations

Elev 2462 ft 46.91 °N, 117.08 °W | Updated 21 seconds ago

Clear
Clear
63.3 °F
Feels Like 63.3 °F
N
0.0
Wind Variable Wind from WSW
Gusts 0.0 mph

Today
High -- | Low -- °F
--% Chance of Precip.
Yesterday
High -- | Low -- °F
Precip. -- in
6:01 AM 7:37 PM
Waxing Crescent, 6% visible
Pressure 29.97 in
Visibility 8.0 miles
Clouds Clear
Dew Point 47 °F
Humidity 56%
Rainfall 0.00 in
Snow Depth Not available.
UV 0 out of 12
Pollen 7.90 out of 12
Air Quality Not available.
Flu Activity Not available.
METAR KPUW 280353Z AUTO 00000KT 8SM CLR 19/07 A3001 RMK AO2 SLP148 T01940067

More Conditions Fewer Conditions

Pressure 29.97 in
Visibility 8.0 miles
Clouds Clear
Dew Point 47 °F
Humidity 56%
Rainfall 0.00 in
Snow Depth Not available.
UV 0 out of 12
Pollen 7.90 out of 12
Air Quality Not available.
Flu Activity Not available.
METAR KPUW 280353Z AUTO 00000KT 8SM CLR 19/07 A3001 RMK AO2 SLP148 T01940067

More Conditions Fewer Conditions

10-Day Weather Forecast

Almanac

Astronomy

Aug. 27, 2014 Rise Set
Actual Time 6:01 AM PDT 7:37 PM PDT
Civil Twilight 5:29 AM PDT 8:08 PM PDT
Nautical Twilight 4:50 AM PDT 8:47 PM PDT
Astronomical Twilight 4:08 AM PDT 9:29 PM PDT
Moon 8:12 AM PDT (8/27) 8:19 PM PDT (8/27)
Length of Visible Light 14h 39m
Length of Day
13h 35m
Tomorrow will be 3m 11s shorter.
Waxing Crescent, 6% of the Moon is Illuminated
Aug 28
Waxing Crescent
Sep 2
First Quarter
Sep 8
Full
Sep 15
Last Quarter
Sep 24
New

Yesterday's Extremes

State Highs State Lows

Community

WunderPhotos

Upload Photos

1,747,907 photos uploaded!

Nearby

Snow Depth

Station Depth Elevation
Sourdough Gulch 0 in 4000 ft
Spruce Springs 0 in 5700 ft
Quartz Peak 1 in 4700 ft
Moses Mountain 1 in 5300 ft
Trough 0 in 5300 ft

Earthquake Activity

City Distance Mag. Time & Date
No recent earthquake activity has been reported nearby.
Minimum magnitude displayed is 2.5.

Coastal Water Temperatures

Place Temperature
No Stations Reporting

Nearby Weather Stations